Time;durP1;ratioP1;P1;durP2;ratioP2;P2;SDS_P1;SDS_P2;PMS_P1;PMS_P2;Temp;Humidity;BMP_temperature;BMP_pressure;BME280_temperature;BME280_humidity;BME280_pressure;Samples;Min_cycle;Max_cycle;Signal;HPM_P1;HPM_P2
2022/05/29 00:00:11;;;;;;;10.10;3.05;;;9.90;99.90;;;;;;4987527;28;20065;-87
2022/05/29 00:02:37;;;;;;;12.45;3.45;;;9.90;99.90;;;;;;5004441;28;20045;-87
2022/05/29 00:05:04;;;;;;;11.48;3.00;;;9.90;99.90;;;;;;4999956;28;20481;-87
2022/05/29 00:07:30;;;;;;;12.25;3.70;;;9.90;99.90;;;;;;4980764;28;20050;-87
2022/05/29 00:09:56;;;;;;;12.05;3.33;;;9.90;99.90;;;;;;4996874;28;20038;-87
2022/05/29 00:12:23;;;;;;;10.45;3.47;;;10.00;99.90;;;;;;4980368;28;20050;-87
2022/05/29 00:14:49;;;;;;;11.88;3.63;;;10.00;99.90;;;;;;4980633;28;20041;-87
2022/05/29 00:17:25;;;;;;;13.30;3.35;;;10.50;99.90;;;;;;4996601;28;20046;-87
2022/05/29 00:19:51;;;;;;;12.45;3.75;;;10.00;99.90;;;;;;4980219;28;20042;-87
2022/05/29 00:22:19;;;;;;;11.68;2.90;;;10.00;99.90;;;;;;4997097;28;20429;-87
2022/05/29 00:24:46;;;;;;;7.80;3.03;;;10.00;99.90;;;;;;4980747;28;20424;-87
2022/05/29 00:27:13;;;;;;;11.10;3.60;;;10.00;99.90;;;;;;4980474;28;20071;-87
2022/05/29 00:29:41;;;;;;;10.68;3.22;;;10.00;99.90;;;;;;4980411;28;20133;-87
2022/05/29 00:32:07;;;;;;;11.00;3.00;;;10.30;99.90;;;;;;4980479;28;20124;-86
2022/05/29 00:34:33;;;;;;;9.85;2.88;;;10.00;99.90;;;;;;4996697;28;20065;-87
2022/05/29 00:36:59;;;;;;;14.25;3.05;;;10.30;99.90;;;;;;4980376;28;20033;-88
2022/05/29 00:39:26;;;;;;;12.80;3.28;;;10.00;99.90;;;;;;4980450;28;20509;-87
2022/05/29 00:41:52;;;;;;;12.75;3.72;;;10.30;99.90;;;;;;4980294;28;20189;-87
2022/05/29 00:44:24;;;;;;;10.80;3.33;;;10.10;99.90;;;;;;4998507;28;20046;-87
2022/05/29 00:47:00;;;;;;;8.75;2.88;;;10.00;99.90;;;;;;4983946;28;20528;-87
2022/05/29 00:49:29;;;;;;;14.95;2.83;;;10.00;99.90;;;;;;4999858;28;20049;-87
2022/05/29 00:52:00;;;;;;;9.70;2.63;;;10.00;99.90;;;;;;4984103;28;20042;-87
2022/05/29 00:54:28;;;;;;;10.07;3.08;;;9.90;99.90;;;;;;5000315;28;20089;-87
2022/05/29 00:56:54;;;;;;;10.23;2.90;;;9.80;99.90;;;;;;4983692;28;20097;-87
2022/05/29 00:59:22;;;;;;;13.20;3.05;;;10.10;99.90;;;;;;5000030;28;20050;-87
2022/05/29 01:01:50;;;;;;;11.30;3.20;;;9.70;99.90;;;;;;4983871;28;20046;-87
2022/05/29 01:04:16;;;;;;;11.43;3.20;;;9.70;99.90;;;;;;5000191;28;20048;-87
2022/05/29 01:06:42;;;;;;;8.02;2.88;;;9.70;99.90;;;;;;4999946;28;20116;-87
2022/05/29 01:09:10;;;;;;;11.05;2.85;;;9.50;99.90;;;;;;4984131;28;20085;-87
2022/05/29 01:11:58;;;;;;;12.80;2.80;;;9.40;99.90;;;;;;4999952;28;20042;-87
2022/05/29 01:14:27;;;;;;;7.32;2.67;;;9.30;99.90;;;;;;4983634;28;20108;-87
2022/05/29 01:17:05;;;;;;;9.20;2.75;;;9.60;99.90;;;;;;5000039;28;20096;-87
2022/05/29 01:19:53;;;;;;;10.85;2.92;;;9.30;99.90;;;;;;5000192;28;20077;-87
2022/05/29 01:22:26;;;;;;;9.13;2.90;;;9.40;99.90;;;;;;4999608;28;20140;-86
2022/05/29 01:24:52;;;;;;;10.02;2.58;;;9.40;99.90;;;;;;4999531;28;20046;-87
2022/05/29 01:27:47;;;;;;;9.18;2.67;;;9.40;99.90;;;;;;4999541;28;20048;-86
2022/05/29 01:30:24;;;;;;;12.63;3.00;;;9.40;99.90;;;;;;4983251;28;20049;-87
2022/05/29 01:33:02;;;;;;;9.00;2.60;;;9.40;99.90;;;;;;4999624;28;20112;-87
2022/05/29 01:36:09;;;;;;;7.70;2.58;;;9.40;99.90;;;;;;4984250;28;20543;-87
2022/05/29 01:38:47;;;;;;;8.32;2.67;;;9.50;99.90;;;;;;4982573;28;20053;-87
2022/05/29 01:41:19;;;;;;;11.18;2.90;;;9.40;99.90;;;;;;4983146;28;20128;-87
2022/05/29 01:44:08;;;;;;;8.70;2.78;;;10.00;99.90;;;;;;4982960;28;20061;-87
2022/05/29 01:46:35;;;;;;;8.18;2.58;;;9.30;99.90;;;;;;4982694;28;20054;-87
2022/05/29 01:49:06;;;;;;;10.40;3.28;;;9.70;99.90;;;;;;4999190;28;20141;-86
2022/05/29 01:51:46;;;;;;;8.90;3.25;;;9.50;99.90;;;;;;4983255;28;20053;-87
2022/05/29 01:54:27;;;;;;;9.38;2.67;;;9.40;99.90;;;;;;4984607;28;20046;-87
2022/05/29 01:56:58;;;;;;;13.38;3.38;;;9.40;99.90;;;;;;4999055;28;20507;-87
2022/05/29 01:59:56;;;;;;;8.60;3.13;;;10.00;99.90;;;;;;4982513;28;20078;-86
2022/05/29 02:02:57;;;;;;;10.48;3.10;;;9.40;99.90;;;;;;4940088;29;20202;-87
2022/05/29 02:05:34;;;;;;;9.52;2.92;;;9.40;99.90;;;;;;4921326;29;20479;-87
2022/05/29 02:08:17;;;;;;;8.10;3.03;;;9.50;99.90;;;;;;4936700;29;20052;-87
2022/05/29 02:10:45;;;;;;;13.32;3.38;;;9.40;99.90;;;;;;4905536;29;20159;-87
2022/05/29 02:13:25;;;;;;;12.35;3.53;;;9.60;99.90;;;;;;4905288;29;20060;-86
2022/05/29 02:15:54;;;;;;;8.85;3.15;;;9.50;99.90;;;;;;4953225;29;20087;-87
2022/05/29 02:18:38;;;;;;;9.40;3.03;;;9.50;99.90;;;;;;4920664;29;20052;-87
2022/05/29 02:21:12;;;;;;;8.00;2.90;;;9.50;99.90;;;;;;4905103;29;20043;-87
2022/05/29 02:23:46;;;;;;;10.35;2.90;;;9.50;99.90;;;;;;4936524;29;20127;-87
2022/05/29 02:26:17;;;;;;;10.50;3.42;;;9.80;99.90;;;;;;4920730;29;20056;-86
2022/05/29 02:28:47;;;;;;;9.30;3.22;;;9.60;99.90;;;;;;4920497;29;20101;-87
2022/05/29 02:31:17;;;;;;;9.07;3.00;;;9.80;99.90;;;;;;4920673;29;20087;-87
2022/05/29 02:34:21;;;;;;;12.30;3.00;;;9.50;99.90;;;;;;4920217;29;20099;-86
2022/05/29 02:37:28;;;;;;;13.50;3.60;;;9.60;99.90;;;;;;4905301;28;20058;-87
2022/05/29 02:40:05;;;;;;;;;;;9.60;99.90;;;;;;4863472;29;20060;-87
2022/05/29 02:42:41;;;;;;;9.65;3.60;;;9.60;99.90;;;;;;4932191;28;19922;-86
2022/05/29 02:45:26;;;;;;;15.10;4.55;;;9.60;99.90;;;;;;4936507;29;20039;-87
2022/05/29 02:47:57;;;;;;;11.60;4.15;;;9.60;99.90;;;;;;4923215;29;20135;-87
2022/05/29 02:50:51;;;;;;;11.18;4.00;;;9.60;99.90;;;;;;4939240;29;20051;-86
2022/05/29 02:53:16;;;;;;;11.13;4.00;;;9.90;99.90;;;;;;4939028;29;20099;-87
2022/05/29 02:55:44;;;;;;;13.38;3.72;;;9.60;99.90;;;;;;4923500;29;20482;-87
2022/05/29 02:58:19;;;;;;;13.20;3.83;;;9.80;99.90;;;;;;4939222;29;20058;-86
2022/05/29 03:00:54;;;;;;;;;;;10.20;99.90;;;;;;4939327;28;20047;-87
2022/05/29 03:03:35;;;;;;;10.50;3.30;;;9.60;99.90;;;;;;4939210;29;20305;-87
2022/05/29 03:06:08;;;;;;;12.73;3.80;;;9.50;99.90;;;;;;4938499;29;20055;-87
2022/05/29 03:09:14;;;;;;;7.47;3.08;;;9.80;99.90;;;;;;4919820;29;20063;-86
2022/05/29 03:11:42;;;;;;;;;;;9.60;99.90;;;;;;4930174;29;20176;-86
2022/05/29 03:14:35;;;;;;;10.10;3.42;;;9.60;99.90;;;;;;4933687;28;20367;-87
2022/05/29 03:17:16;;;;;;;9.88;2.58;;;9.60;99.90;;;;;;4981290;28;20153;-86
2022/05/29 03:19:50;;;;;;;9.73;2.85;;;9.60;99.90;;;;;;4982043;28;20226;-86
2022/05/29 03:22:31;;;;;;;13.82;3.05;;;9.60;99.90;;;;;;5003024;28;20466;-87
2022/05/29 03:25:08;;;;;;;12.23;3.28;;;9.70;99.90;;;;;;4997525;28;20485;-87
2022/05/29 03:27:42;;;;;;;10.30;3.13;;;9.60;99.90;;;;;;4981290;28;20049;-87
2022/05/29 03:30:25;;;;;;;9.40;3.20;;;9.70;99.90;;;;;;4997416;28;20037;-87
2022/05/29 03:32:57;;;;;;;11.05;3.35;;;9.60;99.90;;;;;;4997178;28;20141;-86
2022/05/29 03:35:28;;;;;;;10.32;3.47;;;10.30;99.90;;;;;;4999236;28;20056;-86
2022/05/29 03:37:56;;;;;;;11.98;3.47;;;10.10;99.90;;;;;;4981532;28;20046;-86
2022/05/29 03:40:24;;;;;;;10.30;3.25;;;10.00;99.90;;;;;;4981140;28;20038;-86
2022/05/29 03:42:49;;;;;;;10.40;3.40;;;9.50;99.90;;;;;;4997316;28;20053;-86
2022/05/29 03:45:15;;;;;;;12.07;3.50;;;9.70;99.90;;;;;;4980878;28;20042;-86
2022/05/29 03:47:44;;;;;;;9.02;3.50;;;9.60;99.90;;;;;;4980717;28;20404;-87
2022/05/29 03:50:14;;;;;;;8.98;2.88;;;9.60;99.90;;;;;;4997099;28;20050;-86
2022/05/29 03:52:40;;;;;;;12.38;3.78;;;10.20;99.90;;;;;;4980860;28;20052;-86
2022/05/29 03:55:07;;;;;;;10.70;2.95;;;9.70;99.90;;;;;;4996845;28;20061;-87
2022/05/29 03:57:32;;;;;;;11.77;2.90;;;9.50;99.90;;;;;;4996966;28;20053;-87
2022/05/29 03:59:58;;;;;;;11.60;3.20;;;9.90;99.90;;;;;;4997088;28;20049;-86
2022/05/29 04:02:23;;;;;;;11.82;3.33;;;9.50;99.90;;;;;;4992443;28;20041;-87
2022/05/29 04:04:49;;;;;;;12.63;3.17;;;9.50;99.90;;;;;;4987469;28;20049;-86
2022/05/29 04:07:16;;;;;;;12.40;3.10;;;9.90;99.90;;;;;;5000131;28;20053;-87
2022/05/29 04:12:38;;;;;;;12.25;3.00;;;9.50;99.90;;;;;;5001179;28;20053;-87
2022/05/29 04:15:03;;;;;;;7.82;3.03;;;9.60;99.90;;;;;;4984926;28;20112;-87
2022/05/29 04:17:32;;;;;;;11.75;3.30;;;9.50;99.90;;;;;;4996808;28;20081;-87
2022/05/29 04:19:58;;;;;;;12.85;3.10;;;10.00;99.90;;;;;;4997108;28;20132;-87
2022/05/29 04:22:24;;;;;;;9.98;3.20;;;9.60;99.90;;;;;;4997781;28;20072;-87
2022/05/29 04:24:49;;;;;;;12.07;3.13;;;10.10;99.90;;;;;;4981513;28;20038;-87
2022/05/29 04:27:16;;;;;;;13.63;3.75;;;10.10;99.90;;;;;;4996502;28;20034;-87
2022/05/29 04:29:41;;;;;;;13.07;3.47;;;10.10;99.90;;;;;;4996692;28;20084;-87
2022/05/29 04:34:58;;;;;;;12.40;3.60;;;9.90;99.90;;;;;;4996492;28;20085;-87
2022/05/29 04:37:26;;;;;;;8.93;3.05;;;9.80;99.90;;;;;;4980349;28;20096;-87
2022/05/29 04:39:52;;;;;;;11.05;3.05;;;10.00;99.90;;;;;;4996426;28;20125;-86
2022/05/29 04:42:17;;;;;;;11.13;2.95;;;9.90;99.90;;;;;;4980416;28;20125;-87
2022/05/29 04:44:43;;;;;;;9.98;2.78;;;9.90;99.90;;;;;;4980602;28;20042;-87
2022/05/29 04:47:09;;;;;;;9.75;2.67;;;9.80;99.90;;;;;;4980921;28;20053;-87
2022/05/29 04:49:38;;;;;;;9.77;2.33;;;10.10;99.90;;;;;;4997345;28;20101;-87
2022/05/29 04:52:09;;;;;;;9.13;2.45;;;9.80;99.90;;;;;;4996784;28;20477;-87
2022/05/29 04:54:39;;;;;;;8.52;2.33;;;9.60;99.90;;;;;;4980000;28;20038;-87
2022/05/29 04:57:09;;;;;;;8.63;2.40;;;9.60;99.90;;;;;;4980306;28;20049;-87
2022/05/29 04:59:35;;;;;;;9.00;2.30;;;9.70;99.90;;;;;;4996112;28;20042;-87
2022/05/29 05:02:02;;;;;;;5.85;2.45;;;9.70;99.90;;;;;;4996152;28;20057;-87
2022/05/29 05:04:29;;;;;;;8.88;2.40;;;9.80;99.90;;;;;;4980190;28;20037;-87
2022/05/29 05:06:58;;;;;;;14.00;3.00;;;10.30;99.90;;;;;;4980199;28;20104;-87
2022/05/29 05:09:24;;;;;;;8.00;2.45;;;10.10;99.90;;;;;;4996290;28;20060;-87
2022/05/29 05:11:52;;;;;;;9.10;2.38;;;10.00;99.90;;;;;;4996631;28;20399;-87
2022/05/29 05:14:18;;;;;;;7.85;2.50;;;10.00;99.90;;;;;;4996170;28;20137;-87
2022/05/29 05:16:44;;;;;;;8.20;2.50;;;10.20;99.90;;;;;;4980958;28;20455;-87
2022/05/29 05:19:09;;;;;;;9.05;2.72;;;10.20;99.90;;;;;;4980330;28;20221;-87
2022/05/29 05:21:36;;;;;;;7.85;2.83;;;10.10;99.90;;;;;;4980616;28;20080;-87
2022/05/29 05:24:04;;;;;;;12.05;2.80;;;10.50;99.90;;;;;;4980779;28;20129;-87
2022/05/29 05:26:29;;;;;;;11.23;2.90;;;10.30;99.90;;;;;;4997061;28;20038;-87
2022/05/29 05:28:56;;;;;;;14.07;3.20;;;10.80;99.90;;;;;;4980493;28;20498;-87
2022/05/29 05:31:22;;;;;;;7.43;2.90;;;10.60;99.90;;;;;;5000128;28;20133;-87
2022/05/29 05:33:48;;;;;;;7.45;2.75;;;10.30;99.90;;;;;;4999563;28;20048;-87
2022/05/29 05:36:15;;;;;;;8.10;2.70;;;10.30;99.90;;;;;;4983800;28;20046;-87
2022/05/29 05:38:41;;;;;;;12.63;2.95;;;10.50;99.90;;;;;;4999765;28;20480;-87
2022/05/29 05:41:10;;;;;;;8.93;2.50;;;10.30;99.90;;;;;;4983433;28;20054;-87
2022/05/29 05:43:36;;;;;;;10.15;2.65;;;10.30;99.90;;;;;;4983342;28;20172;-87
2022/05/29 05:46:05;;;;;;;9.55;2.55;;;10.30;99.90;;;;;;4983332;28;20104;-87
2022/05/29 05:48:31;;;;;;;12.75;2.70;;;10.40;99.90;;;;;;4974903;28;20058;-88
2022/05/29 05:50:57;;;;;;;10.73;2.20;;;10.30;99.90;;;;;;4963693;28;20042;-87
2022/05/29 05:53:24;;;;;;;10.30;2.33;;;10.70;99.90;;;;;;4979676;28;20485;-87
2022/05/29 05:55:50;;;;;;;9.75;2.20;;;10.30;99.90;;;;;;4963771;28;20097;-87
2022/05/29 05:58:15;;;;;;;8.45;2.10;;;10.80;99.90;;;;;;4963447;28;20046;-87
2022/05/29 06:00:44;;;;;;;9.35;2.00;;;10.40;99.90;;;;;;4979612;28;20046;-87
2022/05/29 06:03:09;;;;;;;7.97;2.42;;;10.80;99.90;;;;;;4979428;28;20054;-87
2022/05/29 06:05:35;;;;;;;9.35;2.22;;;10.80;99.90;;;;;;4963583;28;20393;-87
2022/05/29 06:08:01;;;;;;;8.80;2.47;;;10.70;99.90;;;;;;4979332;28;20485;-87
2022/05/29 06:10:26;;;;;;;10.02;2.38;;;10.80;99.90;;;;;;4963332;28;20090;-87
2022/05/29 06:12:52;;;;;;;8.85;1.77;;;10.50;99.90;;;;;;4963106;28;20060;-87
2022/05/29 06:15:18;;;;;;;8.05;2.13;;;10.50;99.90;;;;;;4963332;28;20053;-87
2022/05/29 06:17:44;;;;;;;8.70;2.17;;;10.60;99.90;;;;;;4979510;28;20436;-87
2022/05/29 06:20:11;;;;;;;7.78;2.20;;;10.90;99.90;;;;;;4968762;28;20038;-87
2022/05/29 06:22:41;;;;;;;10.13;1.88;;;10.60;99.90;;;;;;4978897;28;20058;-87
2022/05/29 06:25:07;;;;;;;9.60;2.15;;;10.70;99.90;;;;;;4963223;28;20057;-87
2022/05/29 06:27:38;;;;;;;9.32;2.05;;;10.70;99.90;;;;;;4962896;28;20046;-87
2022/05/29 06:30:07;;;;;;;8.60;2.13;;;10.80;99.90;;;;;;4962808;28;20039;-87
2022/05/29 06:32:45;;;;;;;8.77;2.05;;;10.90;99.90;;;;;;4979100;28;20551;-87
2022/05/29 06:35:13;;;;;;;11.52;2.10;;;11.20;99.90;;;;;;4963085;28;20401;-87
2022/05/29 06:37:40;;;;;;;10.35;1.95;;;11.00;99.90;;;;;;4962881;28;20133;-86
2022/05/29 06:40:07;;;;;;;11.48;2.58;;;11.60;99.90;;;;;;4979204;28;20053;-87
2022/05/29 06:42:33;;;;;;;9.00;2.05;;;11.20;99.90;;;;;;4963040;28;20082;-86
2022/05/29 06:44:59;;;;;;;8.20;2.05;;;11.40;99.90;;;;;;4963029;28;20085;-86
2022/05/29 06:47:27;;;;;;;11.50;2.53;;;11.50;99.90;;;;;;4963220;28;20467;-87
2022/05/29 06:49:53;;;;;;;11.43;2.13;;;11.60;99.90;;;;;;4981485;28;20413;-87
2022/05/29 06:52:19;;;;;;;10.52;2.10;;;11.90;99.90;;;;;;4998624;28;20054;-87
2022/05/29 06:54:45;;;;;;;8.98;1.85;;;11.50;99.90;;;;;;4998587;28;20433;-87
2022/05/29 06:57:13;;;;;;;7.43;2.25;;;11.70;99.90;;;;;;4982360;28;20081;-86
2022/05/29 07:07:58;;;;;;;8.75;2.25;;;11.40;99.90;;;;;;4998296;28;20197;-87
2022/05/29 07:10:25;;;;;;;12.00;2.58;;;11.50;99.90;;;;;;4998756;28;20537;-87
2022/05/29 07:12:51;;;;;;;9.30;1.80;;;11.20;99.90;;;;;;4982849;28;20531;-86
2022/05/29 07:15:18;;;;;;;8.50;1.40;;;11.20;99.90;;;;;;4983465;28;20050;-86
2022/05/29 07:17:49;;;;;;;7.90;1.48;;;11.00;99.90;;;;;;4998085;28;20181;-86
2022/05/29 07:20:16;;;;;;;7.80;1.30;;;11.00;99.90;;;;;;4998355;28;20092;-86
2022/05/29 07:22:43;;;;;;;6.57;1.40;;;11.00;99.90;;;;;;5005129;28;20052;-87
2022/05/29 07:25:12;;;;;;;5.97;1.63;;;11.00;99.90;;;;;;4986998;28;20096;-86
2022/05/29 07:27:38;;;;;;;7.93;1.55;;;11.00;99.90;;;;;;5001905;28;20096;-86
2022/05/29 07:30:06;;;;;;;4.25;1.30;;;11.10;99.90;;;;;;4997701;28;20436;-87
2022/05/29 07:32:32;;;;;;;7.97;1.60;;;11.20;99.90;;;;;;4981414;28;20099;-86
2022/05/29 07:34:58;;;;;;;7.70;1.75;;;11.30;99.90;;;;;;4998859;28;20084;-86
2022/05/29 07:37:26;;;;;;;9.38;1.60;;;11.60;99.90;;;;;;4997637;28;20041;-86
2022/05/29 07:39:53;;;;;;;9.77;1.73;;;11.50;99.90;;;;;;4997442;28;20433;-86
2022/05/29 07:45:06;;;;;;;6.18;1.70;;;11.60;99.90;;;;;;4997022;28;20046;-87
2022/05/29 07:47:39;;;;;;;8.95;1.40;;;11.50;99.90;;;;;;4997139;28;20046;-87
2022/05/29 07:50:05;;;;;;;8.20;1.48;;;11.70;99.90;;;;;;4977855;28;20050;-86
2022/05/29 07:52:31;;;;;;;9.13;1.65;;;11.60;99.90;;;;;;4977132;28;20050;-87
2022/05/29 07:54:56;;;;;;;6.50;1.60;;;11.60;99.90;;;;;;4977327;28;20149;-87
2022/05/29 07:57:22;;;;;;;14.68;1.88;;;11.70;99.90;;;;;;4978029;28;20478;-86
2022/05/29 07:59:48;;;;;;;4.90;1.35;;;11.70;99.90;;;;;;4978443;28;20038;-86
2022/05/29 08:02:19;;;;;;;9.00;1.42;;;11.80;99.90;;;;;;4977613;28;20401;-87
2022/05/29 08:04:45;;;;;;;7.68;1.58;;;11.80;99.90;;;;;;4961624;28;20046;-87
2022/05/29 08:07:16;;;;;;;9.52;1.42;;;12.10;99.90;;;;;;4961823;28;20157;-87
2022/05/29 08:09:42;;;;;;;6.15;1.40;;;12.30;99.90;;;;;;4961280;28;20053;-87
2022/05/29 08:12:08;;;;;;;6.32;1.42;;;12.20;99.90;;;;;;4977631;28;20486;-87
2022/05/29 08:14:33;;;;;;;4.68;1.17;;;12.30;99.90;;;;;;4978088;28;20057;-87
2022/05/29 08:16:59;;;;;;;7.25;1.42;;;12.40;99.90;;;;;;4962149;28;20134;-87
2022/05/29 08:19:29;;;;;;;8.43;1.30;;;12.30;99.90;;;;;;4978763;28;20141;-87
2022/05/29 08:21:54;;;;;;;7.38;1.30;;;12.90;99.90;;;;;;4961092;28;20081;-87
2022/05/29 08:32:35;;;;;;;4.82;1.30;;;12.90;99.90;;;;;;4977805;28;20057;-87
2022/05/29 08:35:01;;;;;;;7.30;1.13;;;12.50;99.90;;;;;;4961680;28;20034;-87
2022/05/29 08:37:28;;;;;;;6.38;1.20;;;12.40;99.90;;;;;;4961868;28;20045;-87
2022/05/29 08:39:53;;;;;;;7.15;1.45;;;13.00;99.90;;;;;;4961978;28;20054;-87
2022/05/29 08:42:20;;;;;;;9.40;1.33;;;12.50;99.90;;;;;;4962024;28;20046;-87
2022/05/29 08:44:48;;;;;;;6.05;1.20;;;12.40;99.90;;;;;;4978116;28;20506;-87
2022/05/29 08:47:28;;;;;;;4.38;1.17;;;12.60;99.90;;;;;;4978349;28;20042;-88
2022/05/29 08:49:54;;;;;;;7.65;1.25;;;12.30;99.90;;;;;;4996562;28;20469;-87
2022/05/29 08:52:49;;;;;;;5.72;1.05;;;12.70;99.90;;;;;;4981171;28;20046;-87
2022/05/29 08:55:33;;;;;;;6.22;1.20;;;12.30;99.90;;;;;;4995695;28;20050;-87
2022/05/29 08:58:26;;;;;;;7.75;1.55;;;12.40;99.90;;;;;;4980951;28;20065;-87
2022/05/29 09:01:06;;;;;;;3.50;0.80;;;12.50;99.90;;;;;;4998045;28;20042;-87
2022/05/29 09:03:48;;;;;;;4.38;0.98;;;12.60;99.90;;;;;;4981331;28;20042;-87
2022/05/29 09:06:23;;;;;;;3.97;0.80;;;12.90;99.90;;;;;;4986377;28;20054;-87
2022/05/29 09:09:00;;;;;;;3.97;0.90;;;12.90;99.90;;;;;;5001504;28;20138;-87
2022/05/29 09:11:37;;;;;;;2.70;0.73;;;13.20;99.90;;;;;;4985793;28;20677;-87
2022/05/29 09:14:37;;;;;;;3.55;0.93;;;12.90;99.90;;;;;;5002051;28;20556;-87
2022/05/29 09:17:06;;;;;;;4.10;0.90;;;12.90;99.90;;;;;;4956485;28;20049;-87
2022/05/29 09:19:58;;;;;;;4.65;1.02;;;12.90;99.90;;;;;;4985826;28;20046;-87
2022/05/29 09:22:32;;;;;;;5.72;1.00;;;12.90;99.90;;;;;;5001795;28;20041;-87
2022/05/29 09:25:08;;;;;;;3.50;0.95;;;13.20;99.90;;;;;;4985694;28;20116;-87
2022/05/29 09:27:37;;;;;;;5.75;1.00;;;13.40;99.90;;;;;;4986111;28;20108;-90
2022/05/29 09:30:05;;;;;;;4.90;1.00;;;14.20;99.90;;;;;;4984711;28;20053;-87
2022/05/29 09:32:33;;;;;;;7.38;1.70;;;13.80;99.90;;;;;;4985044;28;20093;-86
2022/05/29 09:35:18;;;;;;;4.15;0.90;;;13.90;99.90;;;;;;4984117;28;20045;-87
2022/05/29 09:37:59;;;;;;;6.82;1.48;;;14.00;99.90;;;;;;5000525;28;20576;-87
2022/05/29 09:40:33;;;;;;;6.40;1.27;;;14.00;99.90;;;;;;5000166;28;20057;-87
2022/05/29 09:43:17;;;;;;;7.18;1.30;;;14.30;99.90;;;;;;4984644;28;20057;-87
2022/05/29 09:45:43;;;;;;;5.95;1.85;;;13.70;99.90;;;;;;4983871;28;20049;-86
2022/05/29 09:51:28;;;;;;;8.15;1.45;;;13.20;99.90;;;;;;4987465;28;20054;-86
2022/05/29 09:53:57;;;;;;;4.88;1.20;;;13.10;99.90;;;;;;4964897;28;20085;-87
2022/05/29 09:56:31;;;;;;;5.45;1.60;;;13.20;99.90;;;;;;4964508;28;20437;-87
2022/05/29 09:59:05;;;;;;;5.07;1.20;;;13.10;99.90;;;;;;4964189;28;20046;-86
2022/05/29 10:01:36;;;;;;;6.57;1.20;;;13.10;99.90;;;;;;4964181;28;20089;-87
2022/05/29 10:04:06;;;;;;;4.82;1.27;;;13.40;99.90;;;;;;4980278;28;20038;-86
2022/05/29 10:06:41;;;;;;;4.93;2.10;;;13.10;99.90;;;;;;4964179;28;20042;-87
2022/05/29 10:09:12;;;;;;;;;;;12.80;99.90;;;;;;4964363;28;20068;-86
2022/05/29 10:11:39;;;;;;;6.50;1.42;;;12.50;99.90;;;;;;4979718;28;19929;-87
2022/05/29 10:14:38;;;;;;;7.53;1.20;;;12.30;99.90;;;;;;4963919;28;20042;-86
2022/05/29 10:17:29;;;;;;;5.75;0.98;;;12.10;99.90;;;;;;4979665;28;20034;-87
2022/05/29 10:19:55;;;;;;;4.82;1.10;;;12.10;99.90;;;;;;4979946;28;20082;-87
2022/05/29 10:22:32;;;;;;;6.30;1.40;;;12.50;99.90;;;;;;4980019;28;20092;-86
2022/05/29 10:24:59;;;;;;;5.82;1.13;;;12.40;99.90;;;;;;4964014;28;20051;-87
2022/05/29 10:27:30;;;;;;;6.22;0.98;;;12.40;99.90;;;;;;4963944;28;20043;-86
2022/05/29 10:30:10;;;;;;;4.55;1.05;;;12.40;99.90;;;;;;4963310;28;20125;-87
2022/05/29 10:32:48;;;;;;;6.35;1.00;;;12.60;99.90;;;;;;4979693;28;20082;-87
2022/05/29 10:35:33;;;;;;;5.63;1.30;;;12.70;99.90;;;;;;4963684;28;20046;-87
2022/05/29 10:38:15;;;;;;;5.47;1.23;;;12.90;99.90;;;;;;4963695;28;20082;-87
2022/05/29 10:40:42;;;;;;;4.28;1.05;;;13.00;99.90;;;;;;4966307;28;20104;-88
2022/05/29 10:43:09;;;;;;;5.47;1.25;;;13.10;99.90;;;;;;4981552;28;20110;-89
2022/05/29 10:45:47;;;;;;;5.88;1.10;;;13.20;99.90;;;;;;4966717;28;20066;-88
2022/05/29 10:48:31;;;;;;;7.47;1.27;;;13.20;99.90;;;;;;4967082;28;20053;-88
2022/05/29 10:51:06;;;;;;;11.05;1.63;;;13.20;99.90;;;;;;4981911;28;20109;-88
2022/05/29 10:53:59;;;;;;;6.53;1.10;;;13.00;99.90;;;;;;4981365;28;20489;-88
2022/05/29 10:56:34;;;;;;;5.78;1.10;;;12.80;99.90;;;;;;4981652;28;20046;-88
2022/05/29 10:59:05;;;;;;;4.90;1.20;;;12.80;99.90;;;;;;4969651;28;20062;-88
2022/05/29 11:04:51;;;;;;;3.60;0.85;;;12.90;99.90;;;;;;4981275;28;20393;-87
2022/05/29 11:07:42;;;;;;;2.47;0.80;;;13.00;99.90;;;;;;4965342;28;20043;-88
2022/05/29 11:10:51;;;;;;;3.40;0.90;;;13.10;99.90;;;;;;4981474;28;20069;-87
2022/05/29 11:14:01;;;;;;;4.25;0.95;;;13.30;99.90;;;;;;4949075;28;20054;-87
2022/05/29 11:16:51;;;;;;;3.58;0.70;;;13.50;99.90;;;;;;4935845;28;20116;-88
2022/05/29 11:19:50;;;;;;;3.03;0.75;;;13.60;99.90;;;;;;4965484;28;20082;-87
2022/05/29 11:22:30;;;;;;;3.78;1.15;;;13.80;99.90;;;;;;4981381;28;20366;-87
2022/05/29 11:25:17;;;;;;;3.47;0.80;;;14.00;99.90;;;;;;4964814;28;20050;-88
2022/05/29 11:28:18;;;;;;;4.20;1.00;;;14.10;99.90;;;;;;4979836;28;20050;-87
2022/05/29 11:30:58;;;;;;;4.38;0.90;;;14.20;99.90;;;;;;4965423;28;20049;-87
2022/05/29 11:34:06;;;;;;;5.50;1.23;;;14.40;99.90;;;;;;4965088;28;20053;-88
2022/05/29 11:36:39;;;;;;;3.80;1.13;;;14.10;99.90;;;;;;4889880;29;20095;-87
2022/05/29 11:39:05;;;;;;;4.00;0.80;;;14.00;99.90;;;;;;4895168;29;20059;-88
2022/05/29 11:41:34;;;;;;;3.97;1.00;;;13.70;99.90;;;;;;4909593;29;20055;-88
2022/05/29 11:44:04;;;;;;;4.40;0.98;;;13.80;99.90;;;;;;4911298;29;20054;-87
2022/05/29 11:52:33;;;;;;;10.15;1.35;;;13.10;99.90;;;;;;4883801;29;20064;-87
2022/05/29 11:55:04;;;;;;;6.00;1.10;;;12.80;99.90;;;;;;4889853;29;20052;-87
2022/05/29 11:57:35;;;;;;;4.20;1.00;;;12.70;99.90;;;;;;4887694;29;20488;-88
2022/05/29 12:00:09;;;;;;;4.55;1.05;;;12.60;99.90;;;;;;4871931;29;20101;-87
2022/05/29 12:02:37;;;;;;;4.65;1.42;;;12.60;99.90;;;;;;4872992;29;20053;-87
2022/05/29 12:05:18;;;;;;;6.55;1.40;;;12.50;99.90;;;;;;4871672;29;20068;-86
2022/05/29 12:08:05;;;;;;;6.47;1.48;;;12.60;99.90;;;;;;4887322;29;20484;-88
2022/05/29 12:10:43;;;;;;;6.72;1.40;;;12.70;99.90;;;;;;4867886;29;20056;-87
2022/05/29 12:13:13;;;;;;;5.55;1.50;;;12.80;99.90;;;;;;4971724;28;20054;-87
2022/05/29 12:15:40;;;;;;;5.57;1.45;;;13.00;99.90;;;;;;4965519;28;20054;-87
2022/05/29 12:18:19;;;;;;;2.88;1.13;;;13.60;99.90;;;;;;4983334;28;20050;-87
2022/05/29 12:20:53;;;;;;;5.50;1.05;;;13.40;99.90;;;;;;4980858;28;20050;-87
2022/05/29 12:23:33;;;;;;;5.25;1.30;;;13.60;99.90;;;;;;4966333;28;20042;-88
2022/05/29 12:26:29;;;;;;;4.38;1.15;;;13.70;99.90;;;;;;4965663;28;20046;-87
2022/05/29 12:29:00;;;;;;;6.65;1.52;;;13.80;99.90;;;;;;4953451;28;20047;-88
2022/05/29 12:31:43;;;;;;;6.85;1.30;;;14.00;99.90;;;;;;4968381;28;20043;-87
2022/05/29 12:34:41;;;;;;;8.02;1.50;;;14.00;99.90;;;;;;4966670;28;20134;-87
2022/05/29 12:37:34;;;;;;;4.15;1.40;;;13.90;99.90;;;;;;4977188;28;20055;-88
2022/05/29 12:40:18;;;;;;;6.38;1.00;;;13.60;99.90;;;;;;4979767;28;20100;-88
2022/05/29 12:43:02;;;;;;;6.68;1.30;;;13.40;99.90;;;;;;4978133;28;20481;-88
2022/05/29 12:45:39;;;;;;;7.25;1.25;;;13.20;99.90;;;;;;4963476;28;20046;-89
2022/05/29 12:48:23;;;;;;;7.18;1.30;;;13.00;99.90;;;;;;4965132;28;20133;-88
2022/05/29 12:51:34;;;;;;;5.22;1.17;;;12.90;99.90;;;;;;4982079;28;20054;-88
2022/05/29 12:54:38;;;;;;;5.35;1.20;;;12.80;99.90;;;;;;4982273;28;20480;-89
2022/05/29 12:57:31;;;;;;;6.50;1.80;;;12.70;99.90;;;;;;4889287;29;20070;-87
2022/05/29 13:00:06;;;;;;;6.30;1.25;;;12.50;99.90;;;;;;4889129;29;20088;-88
2022/05/29 13:02:53;;;;;;;6.10;1.25;;;12.40;99.90;;;;;;4905470;29;20052;-88
2022/05/29 13:05:38;;;;;;;6.53;1.40;;;12.30;99.90;;;;;;4889994;29;20104;-88
2022/05/29 13:08:15;;;;;;;6.97;1.60;;;12.20;99.90;;;;;;4890380;29;20056;-88
2022/05/29 13:10:45;;;;;;;5.78;1.50;;;12.60;99.90;;;;;;4889431;29;20124;-88
2022/05/29 13:13:19;;;;;;;6.80;1.13;;;12.30;99.90;;;;;;4890532;29;20436;-88
2022/05/29 13:15:46;;;;;;;6.05;1.00;;;12.30;99.90;;;;;;4901790;29;20080;-87
2022/05/29 13:18:56;;;;;;;4.93;1.77;;;12.60;99.90;;;;;;4901376;29;20159;-88
2022/05/29 13:21:11;;;;;;;15.25;2.38;;;12.60;99.90;;;;;;4901356;29;20055;-88
2022/05/29 13:23:46;;;;;;;6.80;1.10;;;12.40;99.90;;;;;;4885634;29;20093;-87
2022/05/29 13:26:20;;;;;;;4.40;1.00;;;12.40;99.90;;;;;;4885698;29;20056;-88
2022/05/29 13:28:56;;;;;;;5.10;1.10;;;12.60;99.90;;;;;;4898965;29;20070;-88
2022/05/29 13:31:23;;;;;;;4.90;1.10;;;12.50;99.90;;;;;;4905119;29;20040;-88
2022/05/29 13:34:16;;;;;;;7.18;1.20;;;12.60;99.90;;;;;;4951172;28;20497;-87
2022/05/29 13:36:43;;;;;;;7.28;1.40;;;13.30;99.90;;;;;;4961969;28;20063;-87
2022/05/29 13:39:29;;;;;;;6.38;1.00;;;12.80;99.90;;;;;;4962109;28;20054;-88
2022/05/29 13:42:00;;;;;;;5.75;1.20;;;12.90;99.90;;;;;;4961595;28;20473;-88
2022/05/29 13:44:30;;;;;;;4.85;0.90;;;13.10;99.90;;;;;;4962520;28;20046;-87
2022/05/29 13:47:22;;;;;;;4.65;1.10;;;13.10;99.90;;;;;;4961442;28;20046;-87
2022/05/29 13:49:56;;;;;;;6.63;1.08;;;13.10;99.90;;;;;;4963282;28;20137;-87
2022/05/29 13:52:39;;;;;;;5.22;0.95;;;13.20;99.90;;;;;;4964744;28;20046;-87
2022/05/29 13:55:05;;;;;;;6.85;1.13;;;13.30;99.90;;;;;;4965086;28;20053;-87
2022/05/29 14:03:59;;;;;;;5.75;1.20;;;13.20;99.90;;;;;;4980695;28;20069;-87